Terminal Aerodrome Forecast
Issued by NWS

Home | Current Version | Previous Version | Text Only | Print | Product List | Glossary On
Versions: 1 2 3 4 5 6 7 8 9 10 11 12 13
000
FTUS46 KMTR 222339
TAFSNS
TAF
KSNS 222339Z 2300/2324 31008KT P6SM BKN200
     FM230800 11005KT P6SM BKN180
      TEMPO 2313/2316 SCT030 BKN150
     FM231900 29008KT P6SM FEW150=

USA.gov is the U.S. government's official web portal to all federal, state and local government web resources and services.